Terminal Aerodrome Forecast
Issued by NWS Central Illinois

Home | Current Version | Previous Version | Text Only | Print | Product List | Glossary On
Versions: 1 2 3 4 5 6 7 8 9 10 11 12 13 14 15 16 17 18 19 20
181
FTUS43 KILX 120845 AAB
TAFSPI
TAF AMD
KSPI 120845Z 1209/1306 24005KT 3SM -SN BR OVC035
      TEMPO 1209/1210 1 1/2SM -SN BR OVC015
     FM121200 28007KT P6SM OVC025
     FM121500 31012G18KT P6SM BKN025
     FM122000 31017G25KT P6SM SCT025=

USA.gov is the U.S. government's official web portal to all federal, state and local government web resources and services.